createdAt,value
2022-09-02T00:01:23.910Z,1.20
2022-09-02T00:03:52.261Z,1.30
2022-09-02T00:06:19.559Z,1.20
2022-09-02T00:08:46.534Z,1.50
2022-09-02T00:11:17.427Z,1.60
2022-09-02T00:13:44.883Z,1.30
2022-09-02T00:16:12.787Z,1.50
2022-09-02T00:18:40.445Z,1.30
2022-09-02T00:21:14.299Z,1.30
2022-09-02T00:23:43.043Z,1.35
2022-09-02T00:26:10.784Z,1.30
2022-09-02T00:28:38.344Z,1.27
2022-09-02T00:31:05.532Z,1.20
2022-09-02T00:33:32.416Z,1.20
2022-09-02T00:36:04.394Z,1.10
2022-09-02T00:38:35.872Z,1.20
2022-09-02T00:41:07.736Z,1.30
2022-09-02T00:43:51.014Z,1.20
2022-09-02T00:46:20.210Z,1.30
2022-09-02T00:48:58.503Z,1.10
2022-09-02T00:51:28.127Z,1.20
2022-09-02T00:53:55.459Z,1.50
2022-09-02T00:56:27.730Z,1.17
2022-09-02T00:58:56.005Z,1.10
2022-09-02T01:01:23.571Z,1.30
2022-09-02T01:03:51.360Z,1.40
2022-09-02T01:06:22.051Z,1.10
2022-09-02T01:09:12.682Z,1.20
2022-09-02T01:11:43.484Z,1.15
2022-09-02T01:14:13.694Z,1.10
2022-09-02T01:16:53.396Z,1.30
2022-09-02T01:19:26.758Z,1.30
2022-09-02T01:21:55.660Z,1.25
2022-09-02T01:24:26.027Z,1.15
2022-09-02T01:26:55.088Z,1.30
2022-09-02T01:29:23.048Z,1.00
2022-09-02T01:32:08.260Z,1.20
2022-09-02T01:34:35.110Z,1.35
2022-09-02T01:37:02.069Z,1.17
2022-09-02T01:39:29.253Z,1.30
2022-09-02T01:41:56.160Z,1.10
2022-09-02T01:44:24.234Z,1.20
2022-09-02T01:46:51.232Z,1.30
2022-09-02T01:49:18.407Z,1.20
2022-09-02T01:51:45.337Z,1.20
2022-09-02T01:54:12.394Z,1.20
2022-09-02T01:56:39.352Z,1.30
2022-09-02T01:59:07.992Z,1.10
2022-09-02T02:01:35.641Z,1.20
2022-09-02T02:04:04.716Z,1.30
2022-09-02T02:06:32.152Z,1.25
2022-09-02T02:08:59.490Z,1.38
2022-09-02T02:11:27.508Z,1.25
2022-09-02T02:13:58.359Z,1.50
2022-09-02T02:16:26.450Z,1.20
2022-09-02T02:18:53.416Z,1.30
2022-09-02T02:21:20.740Z,1.30
2022-09-02T02:23:47.779Z,1.35
2022-09-02T02:26:14.622Z,1.23
2022-09-02T02:28:41.743Z,1.30
2022-09-02T02:31:09.736Z,1.33
2022-09-02T02:33:38.405Z,1.10
2022-09-02T02:36:07.698Z,1.40
2022-09-02T02:38:53.686Z,1.30
2022-09-02T02:41:20.869Z,1.40
2022-09-02T02:43:48.088Z,1.38
2022-09-02T02:46:15.647Z,1.30
2022-09-02T02:48:42.809Z,1.20
2022-09-02T02:51:10.557Z,1.40
2022-09-02T02:53:38.326Z,1.25
2022-09-02T02:56:06.049Z,1.30
2022-09-02T02:58:33.191Z,1.40
2022-09-02T03:01:01.737Z,1.30
2022-09-02T03:03:30.109Z,1.40
2022-09-02T03:05:58.181Z,1.20
2022-09-02T03:08:27.259Z,1.70
2022-09-02T03:10:56.012Z,1.40
2022-09-02T03:13:26.679Z,1.40
2022-09-02T03:15:56.890Z,1.30
2022-09-02T03:18:23.947Z,1.30
2022-09-02T03:20:51.601Z,1.40
2022-09-02T03:23:19.220Z,1.40
2022-09-02T03:25:48.920Z,1.50
2022-09-02T03:28:24.895Z,1.38
2022-09-02T03:30:52.099Z,1.30
2022-09-02T03:33:19.205Z,2.13
2022-09-02T03:35:46.913Z,1.38
2022-09-02T03:38:15.409Z,1.60
2022-09-02T03:40:43.361Z,1.40
2022-09-02T03:43:10.212Z,1.20
2022-09-02T03:45:40.480Z,1.30
2022-09-02T03:48:12.650Z,1.38
2022-09-02T03:50:42.698Z,1.67
2022-09-02T03:53:18.316Z,1.50
2022-09-02T03:55:50.817Z,1.30
2022-09-02T03:58:19.788Z,1.40
2022-09-02T04:00:51.775Z,1.50
2022-09-02T04:03:21.029Z,1.50
2022-09-02T04:05:50.719Z,1.60
2022-09-02T04:08:19.853Z,1.30
2022-09-02T04:10:47.698Z,1.60
2022-09-02T04:13:14.697Z,1.30
2022-09-02T04:15:48.170Z,1.38
2022-09-02T04:18:17.494Z,1.75
2022-09-02T04:20:45.218Z,1.30
2022-09-02T04:23:12.804Z,1.42
2022-09-02T04:25:43.952Z,1.30
2022-09-02T04:28:13.117Z,1.38
2022-09-02T04:30:41.742Z,1.40
2022-09-02T04:33:09.611Z,1.50
2022-09-02T04:35:41.355Z,1.63
2022-09-02T04:38:09.533Z,1.52
2022-09-02T04:40:40.889Z,1.40
2022-09-02T04:43:08.080Z,1.60
2022-09-02T04:45:35.234Z,1.50
2022-09-02T04:48:02.767Z,1.60
2022-09-02T04:50:31.309Z,1.67
2022-09-02T04:53:00.009Z,1.50
2022-09-02T04:55:28.110Z,1.60
2022-09-02T04:57:55.426Z,1.52
2022-09-02T05:00:22.459Z,1.50
2022-09-02T05:03:07.995Z,1.70
2022-09-02T05:05:35.751Z,1.50
2022-09-02T05:08:04.605Z,1.30
2022-09-02T05:10:32.941Z,1.80
2022-09-02T05:13:01.005Z,1.67
2022-09-02T05:15:29.787Z,1.65
2022-09-02T05:17:58.807Z,1.73
2022-09-02T05:20:31.097Z,1.60
2022-09-02T05:22:58.117Z,1.80
2022-09-02T05:25:25.219Z,1.60
2022-09-02T05:31:05.689Z,1.83
2022-09-02T05:33:37.287Z,1.80
2022-09-02T05:36:06.866Z,1.80
2022-09-02T05:38:34.803Z,1.75
2022-09-02T05:41:08.182Z,1.80
2022-09-02T05:43:37.818Z,1.65
2022-09-02T05:46:10.192Z,1.52
2022-09-02T05:48:57.328Z,1.73
2022-09-02T05:51:25.972Z,1.95
2022-09-02T05:53:55.985Z,1.60
2022-09-02T05:56:23.420Z,1.70
2022-09-02T05:58:51.459Z,1.70
2022-09-02T06:01:19.843Z,1.60
2022-09-02T06:03:47.610Z,1.80
2022-09-02T06:06:14.738Z,1.70
2022-09-02T06:08:43.137Z,1.60
2022-09-02T06:11:12.012Z,1.50
2022-09-02T06:13:42.183Z,1.65
2022-09-02T06:16:13.483Z,1.90
2022-09-02T06:18:44.027Z,1.53
2022-09-02T06:21:11.629Z,1.60
2022-09-02T06:23:43.522Z,1.70
2022-09-02T06:26:12.845Z,1.55
2022-09-02T06:28:40.889Z,1.60
2022-09-02T06:31:15.199Z,1.80
2022-09-02T06:33:45.119Z,1.80
2022-09-02T06:36:16.329Z,1.70
2022-09-02T06:38:46.289Z,1.60
2022-09-02T06:41:17.441Z,1.70
2022-09-02T06:43:45.463Z,1.83
2022-09-02T06:46:27.109Z,1.70
2022-09-02T06:48:56.987Z,1.50
2022-09-02T06:51:27.626Z,1.75
2022-09-02T06:53:56.568Z,1.50
2022-09-02T06:56:26.884Z,1.70
2022-09-02T06:58:54.950Z,1.85
2022-09-02T07:01:28.790Z,1.70
2022-09-02T07:04:16.204Z,1.55
2022-09-02T07:06:46.008Z,2.30
2022-09-02T07:09:20.180Z,1.70
2022-09-02T07:11:49.146Z,1.60
2022-09-02T07:14:21.001Z,1.60
2022-09-02T07:16:55.715Z,1.60
2022-09-02T07:19:25.441Z,1.67
2022-09-02T07:21:53.850Z,1.50
2022-09-02T07:24:22.917Z,1.83
2022-09-02T07:26:55.413Z,1.60
2022-09-02T07:29:23.628Z,1.70
2022-09-02T07:31:51.209Z,1.50
2022-09-02T07:34:20.064Z,1.60
2022-09-02T07:36:49.194Z,1.77
2022-09-02T07:39:20.390Z,1.60
2022-09-02T07:41:51.782Z,1.60
2022-09-02T07:44:22.376Z,1.77
2022-09-02T07:46:51.603Z,2.08
2022-09-02T07:49:23.978Z,1.85
2022-09-02T07:51:52.439Z,1.73
2022-09-02T07:54:25.085Z,1.80
2022-09-02T07:56:53.712Z,1.80
2022-09-02T07:59:21.820Z,2.28
2022-09-02T08:01:52.900Z,1.58
2022-09-02T08:04:24.515Z,1.80
2022-09-02T08:06:53.902Z,1.95
2022-09-02T08:09:21.751Z,1.92
2022-09-02T08:11:50.377Z,1.90
2022-09-02T08:14:24.386Z,1.70
2022-09-02T08:16:53.390Z,1.80
2022-09-02T08:19:21.298Z,1.90
2022-09-02T08:21:48.270Z,1.80
2022-09-02T08:24:15.173Z,1.77
2022-09-02T08:26:43.196Z,1.87
2022-09-02T08:29:10.150Z,1.90
2022-09-02T08:31:38.135Z,1.70
2022-09-02T08:34:05.178Z,1.70
2022-09-02T08:36:32.318Z,1.80
2022-09-02T08:39:02.436Z,1.80
2022-09-02T08:41:32.280Z,1.90
2022-09-02T08:44:01.898Z,1.73
2022-09-02T08:46:32.200Z,1.90
2022-09-02T08:49:04.659Z,1.80
2022-09-02T08:51:37.938Z,1.88
2022-09-02T08:54:20.101Z,1.88
2022-09-02T08:56:48.688Z,2.00
2022-09-02T08:59:15.869Z,1.70
2022-09-02T09:01:55.840Z,1.55
2022-09-02T09:04:31.617Z,1.73
2022-09-02T09:07:25.958Z,2.30
2022-09-02T09:10:09.174Z,1.67
2022-09-02T09:12:44.957Z,1.90
2022-09-02T09:15:32.121Z,1.90
2022-09-02T09:18:02.972Z,1.90
2022-09-02T09:20:37.520Z,2.00
2022-09-02T09:23:28.271Z,2.00
2022-09-02T09:26:04.419Z,1.85
2022-09-02T09:28:31.547Z,1.77
2022-09-02T09:31:01.000Z,1.85
2022-09-02T09:33:27.891Z,1.90
2022-09-02T09:35:56.025Z,2.03
2022-09-02T09:38:43.180Z,2.05
2022-09-02T09:41:24.082Z,2.25
2022-09-02T09:43:50.961Z,2.90
2022-09-02T09:46:35.761Z,1.80
2022-09-02T09:49:02.726Z,2.10
2022-09-02T09:51:29.623Z,2.20
2022-09-02T09:54:16.866Z,2.15
2022-09-02T09:56:44.837Z,1.90
2022-09-02T09:59:31.676Z,2.10
2022-09-02T10:01:58.778Z,1.90
2022-09-02T10:04:43.433Z,2.08
2022-09-02T10:07:13.443Z,2.00
2022-09-02T10:09:41.229Z,2.22
2022-09-02T10:12:12.738Z,2.10
2022-09-02T10:14:44.011Z,2.10
2022-09-02T10:17:27.544Z,1.80
2022-09-02T10:20:07.739Z,2.05
2022-09-02T10:22:58.634Z,1.98
2022-09-02T10:25:48.699Z,2.08
2022-09-02T10:28:46.264Z,1.90
2022-09-02T10:31:28.658Z,2.08
2022-09-02T10:34:20.012Z,1.90
2022-09-02T10:37:24.683Z,2.03
2022-09-02T10:40:08.522Z,2.10
2022-09-02T10:42:41.545Z,1.90
2022-09-02T10:45:19.115Z,2.20
2022-09-02T10:48:24.518Z,1.80
2022-09-02T10:50:53.352Z,2.03
2022-09-02T10:53:26.498Z,2.10
2022-09-02T10:56:20.623Z,2.58
2022-09-02T10:58:57.344Z,2.25
2022-09-02T11:01:34.728Z,2.05
2022-09-02T11:04:10.176Z,2.10
2022-09-02T11:07:01.472Z,1.73
2022-09-02T11:09:42.531Z,1.80
2022-09-02T11:12:16.846Z,1.80
2022-09-02T11:14:51.496Z,1.85
2022-09-02T11:17:42.621Z,2.00
2022-09-02T11:20:22.134Z,1.90
2022-09-02T11:22:49.151Z,1.80
2022-09-02T11:25:27.812Z,2.15
2022-09-02T11:28:10.009Z,2.20
2022-09-02T11:30:56.418Z,1.98
2022-09-02T11:33:49.272Z,2.05
2022-09-02T11:36:17.836Z,1.90
2022-09-02T11:38:52.766Z,2.10
2022-09-02T11:41:50.713Z,2.15
2022-09-02T11:44:56.191Z,1.85
2022-09-02T11:52:43.296Z,1.90
2022-09-02T11:55:17.188Z,1.65
2022-09-02T11:57:52.391Z,1.50
2022-09-02T12:00:58.601Z,1.50
2022-09-02T12:03:46.599Z,1.67
2022-09-02T12:06:21.577Z,1.52
2022-09-02T12:08:58.543Z,1.50
2022-09-02T12:11:47.294Z,1.50
2022-09-02T12:14:27.068Z,1.60
2022-09-02T12:17:03.701Z,1.70
2022-09-02T12:19:42.812Z,1.50
2022-09-02T12:22:17.719Z,1.90
2022-09-02T12:24:56.959Z,1.30
2022-09-02T12:27:37.706Z,1.60
2022-09-02T12:30:11.164Z,1.70
2022-09-02T12:32:48.762Z,1.80
2022-09-02T12:35:41.540Z,1.60
2022-09-02T12:38:11.377Z,1.90
2022-09-02T12:40:54.668Z,1.67
2022-09-02T12:43:31.031Z,1.80
2022-09-02T12:46:14.391Z,1.38
2022-09-02T12:48:49.854Z,1.60
2022-09-02T12:51:54.115Z,1.60
2022-09-02T12:54:39.341Z,1.60
2022-09-02T12:57:10.842Z,1.48
2022-09-02T12:59:41.505Z,1.50
2022-09-02T13:02:39.640Z,1.60
2022-09-02T13:05:26.856Z,1.70
2022-09-02T13:08:31.370Z,2.00
2022-09-02T13:11:25.601Z,1.70
2022-09-02T13:14:10.553Z,1.70
2022-09-02T13:16:47.292Z,1.60
2022-09-02T13:19:50.870Z,1.60
2022-09-02T13:22:42.479Z,1.70
2022-09-02T13:25:33.691Z,1.90
2022-09-02T13:28:48.261Z,1.90
2022-09-02T13:31:21.750Z,2.38
2022-09-02T13:34:10.146Z,1.90
2022-09-02T13:36:41.514Z,2.13
2022-09-02T13:39:16.875Z,1.70
2022-09-02T13:41:44.332Z,1.90
2022-09-02T13:44:13.834Z,1.90
2022-09-02T13:46:49.363Z,1.92
2022-09-02T13:49:28.112Z,1.75
2022-09-02T13:51:56.769Z,2.00
2022-09-02T13:54:36.309Z,1.90
2022-09-02T13:57:07.792Z,1.70
2022-09-02T13:59:37.479Z,1.77
2022-09-02T14:02:28.883Z,2.10
2022-09-02T14:05:07.777Z,2.00
2022-09-02T14:07:41.998Z,2.00
2022-09-02T14:10:12.401Z,2.08
2022-09-02T14:12:40.683Z,2.22
2022-09-02T14:15:11.054Z,2.00
2022-09-02T14:17:38.094Z,1.73
2022-09-02T14:20:23.664Z,1.80
2022-09-02T14:23:13.053Z,2.00
2022-09-02T14:25:50.993Z,1.85
2022-09-02T14:28:27.909Z,1.92
2022-09-02T14:31:04.006Z,2.00
2022-09-02T14:33:44.031Z,1.55
2022-09-02T14:36:23.634Z,1.90
2022-09-02T14:39:10.303Z,1.83
2022-09-02T14:41:45.513Z,1.85
2022-09-02T14:44:36.290Z,1.70
2022-09-02T14:47:12.901Z,1.80
2022-09-02T14:49:45.514Z,1.77
2022-09-02T14:52:35.583Z,1.83
2022-09-02T14:55:03.414Z,1.60
2022-09-02T14:57:35.866Z,1.80
2022-09-02T15:00:08.853Z,1.88
2022-09-02T15:02:36.390Z,1.83
2022-09-02T15:05:07.289Z,1.90
2022-09-02T15:07:34.611Z,1.80
2022-09-02T15:10:01.964Z,1.60
2022-09-02T15:12:41.473Z,1.70
2022-09-02T15:15:08.751Z,1.50
2022-09-02T15:17:35.611Z,1.70
2022-09-02T15:20:02.820Z,1.70
2022-09-02T15:22:30.019Z,1.70
2022-09-02T15:24:58.192Z,1.90
2022-09-02T15:27:25.032Z,1.70
2022-09-02T15:29:51.858Z,1.88
2022-09-02T15:32:19.175Z,1.63
2022-09-02T15:34:46.083Z,1.58
2022-09-02T15:37:13.394Z,1.60
2022-09-02T15:39:40.722Z,1.90
2022-09-02T15:42:07.862Z,1.60
2022-09-02T15:44:34.817Z,1.60
2022-09-02T15:47:02.389Z,1.80
2022-09-02T15:49:30.694Z,1.80
2022-09-02T15:51:59.192Z,1.65
2022-09-02T15:54:26.241Z,1.60
2022-09-02T15:57:11.805Z,1.70
2022-09-02T15:59:38.674Z,1.92
2022-09-02T16:02:06.168Z,1.75
2022-09-02T16:04:33.485Z,1.77
2022-09-02T16:07:01.173Z,1.65
2022-09-02T16:09:48.064Z,1.70
2022-09-02T16:12:52.426Z,2.03
2022-09-02T16:15:34.379Z,1.65
2022-09-02T16:18:07.519Z,1.58
2022-09-02T16:20:34.671Z,1.80
2022-09-02T16:23:01.834Z,1.50
2022-09-02T16:25:28.708Z,1.60
2022-09-02T16:27:56.430Z,1.63
2022-09-02T16:30:23.953Z,1.83
2022-09-02T16:32:51.625Z,1.73
2022-09-02T16:35:18.640Z,1.40
2022-09-02T16:37:45.613Z,1.50
2022-09-02T16:40:21.044Z,1.70
2022-09-02T16:42:48.452Z,2.20
2022-09-02T16:45:15.626Z,1.90
2022-09-02T16:47:42.488Z,1.80
2022-09-02T16:50:10.748Z,1.60
2022-09-02T16:52:38.012Z,1.85
2022-09-02T16:55:05.304Z,1.90
2022-09-02T16:57:32.705Z,1.80
2022-09-02T16:59:59.541Z,1.65
2022-09-02T17:02:28.259Z,1.98
2022-09-02T17:04:55.160Z,1.75
2022-09-02T17:07:22.036Z,2.08
2022-09-02T17:09:48.922Z,1.92
2022-09-02T17:12:15.801Z,2.00
2022-09-02T17:14:42.751Z,1.90
2022-09-02T17:17:14.874Z,2.10
2022-09-02T17:19:41.773Z,1.83
2022-09-02T17:22:08.938Z,1.73
2022-09-02T17:24:38.114Z,1.63
2022-09-02T17:27:05.295Z,2.00
2022-09-02T17:29:48.474Z,1.67
2022-09-02T17:32:16.304Z,1.88
2022-09-02T17:34:43.252Z,1.90
2022-09-02T17:37:10.194Z,1.90
2022-09-02T17:39:37.247Z,1.63
2022-09-02T17:42:05.410Z,1.88
2022-09-02T17:44:36.311Z,1.70
2022-09-02T17:47:09.460Z,1.80
2022-09-02T17:49:38.179Z,1.90
2022-09-02T17:52:07.646Z,1.70
2022-09-02T17:54:35.845Z,1.80
2022-09-02T17:57:33.202Z,1.83
2022-09-02T18:00:16.178Z,1.63
2022-09-02T18:03:13.253Z,1.80
2022-09-02T18:06:03.574Z,1.77
2022-09-02T18:08:57.588Z,2.10
2022-09-02T18:11:25.562Z,1.80
2022-09-02T18:14:07.801Z,1.88
2022-09-02T18:17:21.461Z,1.80
2022-09-02T18:19:56.977Z,1.70
2022-09-02T18:22:35.892Z,1.80
2022-09-02T18:25:16.319Z,1.73
2022-09-02T18:27:52.723Z,2.10
2022-09-02T18:30:58.697Z,1.85
2022-09-02T18:34:05.516Z,1.90
2022-09-02T18:36:56.305Z,1.90
2022-09-02T18:39:39.730Z,1.83
2022-09-02T18:42:28.152Z,1.70
2022-09-02T18:45:21.568Z,2.00
2022-09-02T18:48:18.978Z,1.70
2022-09-02T18:51:00.308Z,1.90
2022-09-02T18:53:42.934Z,1.70
2022-09-02T18:56:12.101Z,1.80
2022-09-02T18:59:07.936Z,1.77
2022-09-02T19:01:44.987Z,2.25
2022-09-02T19:04:12.718Z,2.10
2022-09-02T19:06:41.395Z,1.92
2022-09-02T19:09:13.006Z,1.92
2022-09-02T19:11:40.468Z,2.08
2022-09-02T19:14:28.001Z,1.83
2022-09-02T19:16:57.677Z,1.95
2022-09-02T19:19:27.311Z,2.08
2022-09-02T19:22:07.268Z,1.80
2022-09-02T19:24:47.034Z,1.92
2022-09-02T19:27:17.354Z,2.13
2022-09-02T19:29:51.253Z,2.00
2022-09-02T19:32:28.919Z,2.17
2022-09-02T19:34:57.999Z,2.17
2022-09-02T19:37:25.648Z,2.80
2022-09-02T19:40:11.195Z,2.37
2022-09-02T19:42:38.157Z,2.53
2022-09-02T19:45:05.315Z,2.60
2022-09-02T19:50:40.952Z,2.37
2022-09-02T19:53:40.749Z,2.00
2022-09-02T19:56:08.112Z,2.10
2022-09-02T19:58:36.183Z,2.03
2022-09-02T20:02:14.804Z,1.90
2022-09-02T20:05:20.638Z,2.80
2022-09-02T20:07:47.884Z,2.10
2022-09-02T20:10:14.885Z,2.10
